createdAt,value
2017-05-30T00:09:00.843Z,0
2017-05-30T00:19:15.655Z,0
2017-05-30T00:29:30.791Z,0
2017-05-30T00:39:45.311Z,0
2017-05-30T00:50:00.053Z,0
2017-05-30T01:00:15.004Z,0
2017-05-30T01:10:30.118Z,0
2017-05-30T01:20:44.213Z,0
2017-05-30T01:30:58.501Z,0
2017-05-30T01:41:12.610Z,0
2017-05-30T01:51:28.387Z,0
2017-05-30T02:01:43.033Z,0
2017-05-30T02:11:58.339Z,0
2017-05-30T02:22:14.047Z,0
2017-05-30T02:32:29.442Z,0
2017-05-30T02:42:44.144Z,0
2017-05-30T02:52:58.319Z,0
2017-05-30T03:03:13.837Z,0
2017-05-30T03:13:28.755Z,0
2017-05-30T03:23:44.547Z,10
2017-05-30T03:33:58.791Z,20
2017-05-30T03:44:12.628Z,30
2017-05-30T03:54:28.087Z,35
2017-05-30T04:04:43.027Z,45
2017-05-30T04:14:57.344Z,55
2017-05-30T04:25:12.859Z,80
2017-05-30T04:35:27.893Z,140
2017-05-30T04:45:43.082Z,165
2017-05-30T04:55:58.103Z,165
2017-05-30T05:06:12.602Z,240
2017-05-30T05:16:27.041Z,285
2017-05-30T05:26:41.635Z,325
2017-05-30T05:36:56.011Z,385
2017-05-30T05:47:11.648Z,350
2017-05-30T05:57:26.774Z,465
2017-05-30T06:07:40.727Z,515
2017-05-30T06:17:56.431Z,665
2017-05-30T06:28:11.922Z,710
2017-05-30T06:38:27.256Z,875
2017-05-30T06:48:41.523Z,520
2017-05-30T06:58:55.434Z,455
2017-05-30T07:09:09.679Z,585
2017-05-30T07:19:24.597Z,655
2017-05-30T07:29:40.251Z,975
2017-05-30T07:39:54.474Z,1260
2017-05-30T07:50:09.851Z,1285
2017-05-30T08:00:25.720Z,1420
2017-05-30T08:10:40.757Z,1320
2017-05-30T08:20:55.757Z,1615
2017-05-30T08:31:10.881Z,1730
2017-05-30T08:41:26.081Z,1885
2017-05-30T08:51:41.228Z,1890
2017-05-30T09:01:56.464Z,1895
2017-05-30T09:12:12.127Z,920
2017-05-30T09:22:27.252Z,1240
2017-05-30T09:32:42.325Z,925
2017-05-30T09:42:56.599Z,800
2017-05-30T09:53:10.985Z,585
2017-05-30T10:03:25.208Z,920
2017-05-30T10:13:39.587Z,845
2017-05-30T10:23:55.342Z,1640
2017-05-30T10:34:10.541Z,1390
2017-05-30T10:44:24.704Z,2290
2017-05-30T10:54:40.046Z,2315
2017-05-30T11:04:54.496Z,905
2017-05-30T11:15:08.990Z,775
2017-05-30T11:25:24.335Z,610
2017-05-30T11:35:39.804Z,525
2017-05-30T11:45:54.251Z,2595
2017-05-30T11:56:09.928Z,425
2017-05-30T12:06:24.284Z,240
2017-05-30T12:16:39.512Z,415
2017-05-30T12:26:53.788Z,425
2017-05-30T12:37:09.650Z,1045
2017-05-30T12:47:24.811Z,1350
2017-05-30T12:57:38.884Z,330
2017-05-30T13:07:54.523Z,310
2017-05-30T13:18:10.088Z,665
2017-05-30T13:28:24.986Z,575
2017-05-30T13:38:40.642Z,950
2017-05-30T13:48:55.509Z,1085
2017-05-30T13:59:10.422Z,945
2017-05-30T14:09:25.186Z,915
2017-05-30T14:19:39.639Z,1060
2017-05-30T14:29:54.852Z,1250
2017-05-30T14:40:08.909Z,300
2017-05-30T14:50:22.973Z,280
2017-05-30T15:00:38.542Z,645
2017-05-30T15:10:54.351Z,495
2017-05-30T15:21:09.380Z,700
2017-05-30T15:31:23.629Z,720
2017-05-30T15:41:38.570Z,690
2017-05-30T15:51:53.494Z,425
2017-05-30T16:02:09.109Z,210
2017-05-30T16:12:24.364Z,835
2017-05-30T16:22:40.002Z,385
2017-05-30T16:32:54.720Z,140
2017-05-30T16:43:08.584Z,185
2017-05-30T16:53:24.367Z,720
2017-05-30T17:03:39.647Z,535
2017-05-30T17:13:54.550Z,455
2017-05-30T17:24:08.933Z,285
2017-05-30T17:34:24.041Z,270
2017-05-30T17:44:39.186Z,160
2017-05-30T17:54:54.865Z,285
2017-05-30T18:05:08.754Z,135
2017-05-30T18:15:24.388Z,200
2017-05-30T18:25:38.992Z,160
2017-05-30T18:35:53.730Z,50
2017-05-30T18:46:08.471Z,55
2017-05-30T18:56:23.469Z,40
2017-05-30T19:06:38.151Z,30
2017-05-30T19:16:53.555Z,30
2017-05-30T19:27:07.663Z,20
2017-05-30T19:37:21.573Z,10
2017-05-30T19:47:36.789Z,5
2017-05-30T19:57:50.701Z,0
2017-05-30T20:08:06.220Z,0
2017-05-30T20:18:21.957Z,0
2017-05-30T20:28:35.768Z,0
2017-05-30T20:38:50.680Z,0
2017-05-30T20:49:05.356Z,0
2017-05-30T20:59:19.259Z,0
2017-05-30T21:09:34.690Z,0
2017-05-30T21:19:48.737Z,0
2017-05-30T21:30:03.235Z,0
2017-05-30T21:40:18.859Z,0
2017-05-30T21:50:33.598Z,0
2017-05-30T22:00:48.825Z,0
2017-05-30T22:11:03.344Z,0
2017-05-30T22:21:17.269Z,0
2017-05-30T22:31:32.075Z,0
2017-05-30T22:41:46.861Z,0
2017-05-30T22:52:00.815Z,0
2017-05-30T23:02:16.086Z,0
2017-05-30T23:12:31.295Z,0
2017-05-30T23:22:46.050Z,0
2017-05-30T23:33:01.431Z,0
2017-05-30T23:43:16.150Z,0
2017-05-30T23:53:30.420Z,0
